createdAt,value
2022-11-18T00:01:32.667Z,6.93
2022-11-18T00:04:01.940Z,5.97
2022-11-18T00:06:31.164Z,6.13
2022-11-18T00:09:00.328Z,6.45
2022-11-18T00:11:46.499Z,6.18
2022-11-18T00:14:20.927Z,6.10
2022-11-18T00:16:52.264Z,6.97
2022-11-18T00:19:21.800Z,6.13
2022-11-18T00:21:50.428Z,6.80
2022-11-18T00:24:19.248Z,6.40
2022-11-18T00:26:47.714Z,8.13
2022-11-18T00:29:18.066Z,6.65
2022-11-18T00:31:46.737Z,6.32
2022-11-18T00:34:16.596Z,6.40
2022-11-18T00:36:45.461Z,6.57
2022-11-18T00:39:15.570Z,6.85
2022-11-18T00:42:01.806Z,6.35
2022-11-18T00:44:31.722Z,6.40
2022-11-18T00:47:00.143Z,6.20
2022-11-18T00:49:28.543Z,5.72
2022-11-18T00:51:57.006Z,6.20
2022-11-18T00:54:25.433Z,6.78
2022-11-18T00:56:53.917Z,6.95
2022-11-18T00:59:22.418Z,7.72
2022-11-18T01:01:52.240Z,6.00
2022-11-18T01:04:20.894Z,6.40
2022-11-18T01:06:49.370Z,5.93
2022-11-18T01:09:20.570Z,5.75
2022-11-18T01:12:06.826Z,6.97
2022-11-18T01:14:35.274Z,6.80
2022-11-18T01:17:05.279Z,6.68
2022-11-18T01:19:33.720Z,6.50
2022-11-18T01:22:03.454Z,6.72
2022-11-18T01:24:33.049Z,6.47
2022-11-18T01:27:01.934Z,6.05
2022-11-18T01:29:30.405Z,6.70
2022-11-18T01:32:23.560Z,8.48
2022-11-18T01:34:48.776Z,6.50
2022-11-18T01:37:17.265Z,7.47
2022-11-18T01:39:45.703Z,6.53
2022-11-18T01:42:16.233Z,6.50
2022-11-18T01:45:05.149Z,6.18
2022-11-18T01:47:36.650Z,7.80
2022-11-18T01:50:07.800Z,6.47
2022-11-18T01:52:36.272Z,6.13
2022-11-18T01:55:09.249Z,5.90
2022-11-18T01:57:37.781Z,6.10
2022-11-18T02:00:07.992Z,8.02
2022-11-18T02:02:37.778Z,6.13
2022-11-18T02:05:09.641Z,6.75
2022-11-18T02:07:40.235Z,6.18
2022-11-18T02:10:09.626Z,6.07
2022-11-18T02:12:38.146Z,7.40
2022-11-18T02:15:08.186Z,6.30
2022-11-18T02:17:46.134Z,5.82
2022-11-18T02:20:25.774Z,5.68
2022-11-18T02:23:58.926Z,6.05
2022-11-18T02:27:22.284Z,5.88
2022-11-18T02:29:54.728Z,6.10
2022-11-18T02:32:26.284Z,6.43
2022-11-18T02:34:58.815Z,5.75
2022-11-18T02:37:32.488Z,5.72
2022-11-18T02:40:03.642Z,6.85
2022-11-18T02:42:32.543Z,6.03
2022-11-18T02:45:05.004Z,5.68
2022-11-18T02:47:33.494Z,5.95
2022-11-18T02:50:05.289Z,6.13
2022-11-18T02:52:33.914Z,6.32
2022-11-18T02:55:02.516Z,5.97
2022-11-18T02:57:31.041Z,5.30
2022-11-18T02:59:59.867Z,5.45
2022-11-18T03:02:30.036Z,5.80
2022-11-18T03:04:58.592Z,5.65
2022-11-18T03:07:29.153Z,5.68
2022-11-18T03:09:57.751Z,5.82
2022-11-18T03:12:32.243Z,5.40
2022-11-18T03:15:08.045Z,5.57
2022-11-18T03:17:47.006Z,5.10
2022-11-18T03:20:21.424Z,5.70
2022-11-18T03:22:53.396Z,5.50
2022-11-18T03:25:23.840Z,5.32
2022-11-18T03:27:56.878Z,5.72
2022-11-18T03:30:25.574Z,5.43
2022-11-18T03:33:00.133Z,6.25
2022-11-18T03:35:30.761Z,5.97
2022-11-18T03:38:03.831Z,6.10
2022-11-18T03:40:32.968Z,5.40
2022-11-18T03:43:05.420Z,5.68
2022-11-18T03:45:36.565Z,6.88
2022-11-18T03:48:09.841Z,5.60
2022-11-18T03:50:41.995Z,5.28
2022-11-18T03:53:10.440Z,5.85
2022-11-18T03:55:41.947Z,5.32
2022-11-18T03:58:14.023Z,5.13
2022-11-18T04:00:44.402Z,5.70
2022-11-18T04:03:14.275Z,5.18
2022-11-18T04:05:44.078Z,5.03
2022-11-18T04:08:15.154Z,5.38
2022-11-18T04:10:47.495Z,5.63
2022-11-18T04:13:19.673Z,5.45
2022-11-18T04:15:48.163Z,5.35
2022-11-18T04:18:18.076Z,6.28
2022-11-18T04:20:46.544Z,5.22
2022-11-18T04:23:16.176Z,5.38
2022-11-18T04:25:44.634Z,5.50
2022-11-18T04:28:13.081Z,5.38
2022-11-18T04:30:41.493Z,5.32
2022-11-18T04:33:10.340Z,4.82
2022-11-18T04:35:40.161Z,5.30
2022-11-18T04:38:08.564Z,5.60
2022-11-18T04:40:37.025Z,4.75
2022-11-18T04:43:05.424Z,5.57
2022-11-18T04:45:33.897Z,5.40
2022-11-18T04:48:03.939Z,5.10
2022-11-18T04:50:32.486Z,5.85
2022-11-18T04:53:02.320Z,5.38
2022-11-18T04:55:30.741Z,5.25
2022-11-18T04:57:59.169Z,5.47
2022-11-18T05:00:27.582Z,5.05
2022-11-18T05:02:56.055Z,4.97
2022-11-18T05:05:24.536Z,5.50
2022-11-18T05:07:53.133Z,5.40
2022-11-18T05:10:22.883Z,4.72
2022-11-18T05:12:50.325Z,5.10
2022-11-18T05:15:19.213Z,4.95
2022-11-18T05:17:47.855Z,6.10
2022-11-18T05:20:17.288Z,5.80
2022-11-18T05:22:45.820Z,5.75
2022-11-18T05:25:14.301Z,5.45
2022-11-18T05:27:44.132Z,5.20
2022-11-18T05:30:14.725Z,5.45
2022-11-18T05:32:43.161Z,5.38
2022-11-18T05:35:11.595Z,5.22
2022-11-18T05:37:40.015Z,5.25
2022-11-18T05:40:10.792Z,5.10
2022-11-18T05:42:56.770Z,5.07
2022-11-18T05:45:26.647Z,5.40
2022-11-18T05:48:00.871Z,4.95
2022-11-18T05:50:29.312Z,5.88
2022-11-18T05:52:57.825Z,5.45
2022-11-18T05:55:28.762Z,5.38
2022-11-18T05:57:57.398Z,5.05
2022-11-18T06:00:27.270Z,5.63
2022-11-18T06:02:55.804Z,5.10
2022-11-18T06:05:24.322Z,4.72
2022-11-18T06:07:52.785Z,5.35
2022-11-18T06:10:24.082Z,5.25
2022-11-18T06:12:53.929Z,5.70
2022-11-18T06:15:24.073Z,5.20
2022-11-18T06:17:55.989Z,6.13
2022-11-18T06:20:24.561Z,5.38
2022-11-18T06:22:54.847Z,4.88
2022-11-18T06:25:23.631Z,4.97
2022-11-18T06:27:52.504Z,5.53
2022-11-18T06:30:21.277Z,5.10
2022-11-18T06:32:49.858Z,5.15
2022-11-18T06:35:19.696Z,5.20
2022-11-18T06:37:48.411Z,5.43
2022-11-18T06:40:17.786Z,12.45
2022-11-18T06:43:04.041Z,5.32
2022-11-18T06:45:35.118Z,5.53
2022-11-18T06:48:02.714Z,7.13
2022-11-18T06:50:32.700Z,11.45
2022-11-18T06:53:02.035Z,8.88
2022-11-18T06:55:30.592Z,6.75
2022-11-18T06:57:59.191Z,10.38
2022-11-18T07:00:27.660Z,7.95
2022-11-18T07:02:56.142Z,8.32
2022-11-18T07:05:24.647Z,14.45
2022-11-18T07:07:54.648Z,9.10
2022-11-18T07:10:23.086Z,11.40
2022-11-18T07:12:51.574Z,8.68
2022-11-18T07:15:20.079Z,8.88
2022-11-18T07:17:48.597Z,7.97
2022-11-18T07:20:17.572Z,7.97
2022-11-18T07:22:46.164Z,8.85
2022-11-18T07:25:16.164Z,8.45
2022-11-18T07:27:44.656Z,9.57
2022-11-18T07:30:14.800Z,7.93
2022-11-18T07:32:43.391Z,9.80
2022-11-18T07:35:11.822Z,8.30
2022-11-18T07:37:40.451Z,16.08
2022-11-18T07:40:11.489Z,9.88
2022-11-18T07:42:43.636Z,12.30
2022-11-18T07:45:12.751Z,10.93
2022-11-18T07:47:41.253Z,11.45
2022-11-18T07:50:10.287Z,12.63
2022-11-18T07:52:38.772Z,14.32
2022-11-18T07:55:08.074Z,14.68
2022-11-18T07:57:36.691Z,14.05
2022-11-18T08:00:08.938Z,12.68
2022-11-18T08:02:37.367Z,12.43
2022-11-18T08:05:06.927Z,13.75
2022-11-18T08:07:35.495Z,15.00
2022-11-18T08:10:04.127Z,13.07
2022-11-18T08:12:32.665Z,13.50
2022-11-18T08:15:01.279Z,12.80
2022-11-18T08:17:31.156Z,13.18
2022-11-18T08:19:59.758Z,13.23
2022-11-18T08:22:28.492Z,14.05
2022-11-18T08:24:57.046Z,13.45
2022-11-18T08:27:25.559Z,14.40
2022-11-18T08:29:55.066Z,31.65
2022-11-18T08:32:24.156Z,54.53
2022-11-18T08:34:53.979Z,57.75
2022-11-18T08:37:22.473Z,50.67
2022-11-18T08:39:50.940Z,67.43
2022-11-18T08:42:24.429Z,63.95
2022-11-18T08:44:53.590Z,48.47
2022-11-18T08:47:23.416Z,56.90
2022-11-18T08:49:53.565Z,46.70
2022-11-18T08:52:22.091Z,41.92
2022-11-18T08:54:50.670Z,41.53
2022-11-18T08:57:19.564Z,37.35
2022-11-18T08:59:48.347Z,35.17
2022-11-18T09:02:17.517Z,29.83
2022-11-18T09:04:47.845Z,33.38
2022-11-18T09:07:17.854Z,32.08
2022-11-18T09:09:46.489Z,32.90
2022-11-18T09:12:17.546Z,31.73
2022-11-18T09:15:13.061Z,29.60
2022-11-18T09:17:35.914Z,28.08
2022-11-18T09:20:04.745Z,26.48
2022-11-18T09:22:37.649Z,22.63
2022-11-18T09:25:07.264Z,23.73
2022-11-18T09:27:36.552Z,21.80
2022-11-18T09:30:06.255Z,22.50
2022-11-18T09:32:34.739Z,18.15
2022-11-18T09:35:03.280Z,17.70
2022-11-18T09:37:31.717Z,23.63
2022-11-18T09:40:01.611Z,20.52
2022-11-18T09:42:43.306Z,20.15
2022-11-18T09:45:23.896Z,15.93
2022-11-18T09:47:53.079Z,17.80
2022-11-18T09:53:19.018Z,18.48
2022-11-18T09:55:48.916Z,16.55
2022-11-18T09:58:21.600Z,16.08
2022-11-18T10:00:50.120Z,18.92
2022-11-18T10:03:24.818Z,14.05
2022-11-18T10:05:57.812Z,14.38
2022-11-18T10:08:28.347Z,12.20
2022-11-18T10:11:02.050Z,12.80
2022-11-18T10:13:41.701Z,15.18
2022-11-18T10:16:24.374Z,67.15
2022-11-18T10:19:01.174Z,35.22
2022-11-18T10:21:52.569Z,33.83
2022-11-18T10:24:22.316Z,38.38
2022-11-18T10:26:56.523Z,38.33
2022-11-18T10:29:25.112Z,32.72
2022-11-18T10:31:59.724Z,34.53
2022-11-18T10:34:32.839Z,30.77
2022-11-18T10:37:02.975Z,28.52
2022-11-18T10:39:31.553Z,30.63
2022-11-18T10:42:05.024Z,24.20
2022-11-18T10:44:38.732Z,25.23
2022-11-18T10:47:26.847Z,26.67
2022-11-18T10:49:56.438Z,23.50
2022-11-18T10:52:24.974Z,25.02
2022-11-18T10:55:20.192Z,24.42
2022-11-18T10:57:53.877Z,26.48
2022-11-18T11:00:50.129Z,25.92
2022-11-18T11:03:33.358Z,26.88
2022-11-18T11:06:42.250Z,22.10
2022-11-18T11:09:26.544Z,20.27
2022-11-18T11:12:01.404Z,23.15
2022-11-18T11:14:34.080Z,17.45
2022-11-18T11:17:08.121Z,20.77
2022-11-18T11:19:52.140Z,21.92
2022-11-18T11:22:21.065Z,18.85
2022-11-18T11:24:49.773Z,22.17
2022-11-18T11:30:29.124Z,17.80
2022-11-18T11:33:21.555Z,20.13
2022-11-18T11:35:58.550Z,20.45
2022-11-18T11:38:36.889Z,18.05
2022-11-18T11:41:11.380Z,20.30
2022-11-18T11:43:52.180Z,18.25
2022-11-18T11:46:29.387Z,16.52
2022-11-18T11:49:00.482Z,18.17
2022-11-18T11:51:34.361Z,16.52
2022-11-18T11:54:16.540Z,16.75
2022-11-18T11:56:48.747Z,19.75
2022-11-18T11:59:28.790Z,18.45
2022-11-18T12:02:40.582Z,16.85
2022-11-18T12:05:18.892Z,16.77
2022-11-18T12:08:03.285Z,18.23
2022-11-18T12:10:39.429Z,15.88
2022-11-18T12:13:21.408Z,16.38
2022-11-18T12:15:58.133Z,18.23
2022-11-18T12:18:33.120Z,14.70
2022-11-18T12:21:01.661Z,14.35
2022-11-18T12:23:30.760Z,14.95
2022-11-18T12:26:10.095Z,14.32
2022-11-18T12:28:41.316Z,13.40
2022-11-18T12:31:43.235Z,12.10
2022-11-18T12:34:31.190Z,15.40
2022-11-18T12:36:59.662Z,14.73
2022-11-18T12:39:49.449Z,16.02
2022-11-18T12:42:55.792Z,14.13
2022-11-18T12:45:58.785Z,14.65
2022-11-18T12:48:41.050Z,14.60
2022-11-18T12:51:46.388Z,12.10
2022-11-18T12:54:29.908Z,12.10
2022-11-18T12:57:01.473Z,15.63
2022-11-18T12:59:34.992Z,13.02
2022-11-18T13:02:21.239Z,14.23
2022-11-18T13:05:05.929Z,14.18
2022-11-18T13:07:59.836Z,13.10
2022-11-18T13:10:30.378Z,18.55
2022-11-18T13:12:58.900Z,13.65
2022-11-18T13:15:45.406Z,13.82
2022-11-18T13:18:16.547Z,14.07
2022-11-18T13:20:45.697Z,14.32
2022-11-18T13:23:59.295Z,14.45
2022-11-18T13:26:32.971Z,14.00
2022-11-18T13:29:36.818Z,13.15
2022-11-18T13:32:16.966Z,15.40
2022-11-18T13:34:48.339Z,15.18
2022-11-18T13:37:20.388Z,16.92
2022-11-18T13:39:50.399Z,12.43
2022-11-18T13:42:21.446Z,13.88
2022-11-18T13:44:54.824Z,11.95
2022-11-18T13:47:30.109Z,16.17
2022-11-18T13:50:06.547Z,11.55
2022-11-18T13:52:39.031Z,15.95
2022-11-18T13:55:19.772Z,14.43
2022-11-18T13:57:50.055Z,13.25
2022-11-18T14:00:23.843Z,13.70
2022-11-18T14:02:57.850Z,10.73
2022-11-18T14:05:27.797Z,12.10
2022-11-18T14:08:00.128Z,12.45
2022-11-18T14:10:39.219Z,13.75
2022-11-18T14:13:21.446Z,12.43
2022-11-18T14:15:49.991Z,12.80
2022-11-18T14:18:32.077Z,17.45
2022-11-18T14:21:01.441Z,16.55
2022-11-18T14:23:33.335Z,16.15
2022-11-18T14:26:04.685Z,28.52
2022-11-18T14:28:34.574Z,26.42
2022-11-18T14:31:25.247Z,31.38
2022-11-18T14:34:18.290Z,31.02
2022-11-18T14:36:46.806Z,38.78
2022-11-18T14:39:27.071Z,47.20
2022-11-18T14:41:57.966Z,104.65
2022-11-18T14:44:27.653Z,63.30
2022-11-18T14:46:59.107Z,70.72
2022-11-18T14:49:30.100Z,199.10
2022-11-18T14:51:58.745Z,124.97
2022-11-18T14:54:28.183Z,116.03
2022-11-18T14:57:01.235Z,111.40
2022-11-18T14:59:29.774Z,118.00
2022-11-18T15:01:58.796Z,105.60
2022-11-18T15:04:27.467Z,112.30
2022-11-18T15:06:56.313Z,105.68
2022-11-18T15:09:24.819Z,93.68
2022-11-18T15:11:53.685Z,92.45
2022-11-18T15:14:23.584Z,97.10
2022-11-18T15:16:52.052Z,84.40
2022-11-18T15:19:20.676Z,83.32
2022-11-18T15:21:49.151Z,70.57
2022-11-18T15:24:17.944Z,65.95
2022-11-18T15:26:47.692Z,63.10
2022-11-18T15:29:19.798Z,66.47
2022-11-18T15:31:49.720Z,61.03
2022-11-18T15:34:20.439Z,65.57
2022-11-18T15:36:49.435Z,62.20
2022-11-18T15:39:18.156Z,55.67
2022-11-18T15:41:46.731Z,53.17
2022-11-18T15:44:16.146Z,51.78
2022-11-18T15:46:47.928Z,54.30
2022-11-18T15:49:18.757Z,57.95
2022-11-18T15:51:47.266Z,49.92
2022-11-18T15:54:16.975Z,48.78
2022-11-18T15:56:45.837Z,52.30
2022-11-18T15:59:15.124Z,46.90
2022-11-18T16:01:44.693Z,48.00
2022-11-18T16:04:14.386Z,41.85
2022-11-18T16:06:44.538Z,46.83
2022-11-18T16:09:13.589Z,39.78
2022-11-18T16:11:59.636Z,43.97
2022-11-18T16:14:28.182Z,40.25
2022-11-18T16:16:57.362Z,37.63
2022-11-18T16:19:27.172Z,39.85
2022-11-18T16:21:57.970Z,43.67
2022-11-18T16:24:27.842Z,35.70
2022-11-18T16:26:56.619Z,36.75
2022-11-18T16:29:25.618Z,30.58
2022-11-18T16:31:54.986Z,37.45
2022-11-18T16:34:24.697Z,31.02
2022-11-18T16:36:56.730Z,33.72
2022-11-18T16:39:27.361Z,33.67
2022-11-18T16:42:00.708Z,33.50
2022-11-18T16:44:35.307Z,32.15
2022-11-18T16:47:08.958Z,26.42
2022-11-18T16:49:39.244Z,30.15
2022-11-18T16:52:20.261Z,28.63
2022-11-18T16:54:48.727Z,27.77
2022-11-18T16:57:17.362Z,26.05
2022-11-18T16:59:45.854Z,29.35
2022-11-18T17:02:15.257Z,29.30
2022-11-18T17:04:44.727Z,29.35
2022-11-18T17:07:13.729Z,27.60
2022-11-18T17:09:43.944Z,27.23
2022-11-18T17:12:12.453Z,25.20
2022-11-18T17:14:41.252Z,24.17
2022-11-18T17:17:09.676Z,25.25
2022-11-18T17:19:38.206Z,24.92
2022-11-18T17:22:08.324Z,23.77
2022-11-18T17:24:37.043Z,24.35
2022-11-18T17:27:06.956Z,23.83
2022-11-18T17:29:35.681Z,24.35
2022-11-18T17:32:04.223Z,23.45
2022-11-18T17:34:33.058Z,22.58
2022-11-18T17:37:06.574Z,20.10
2022-11-18T17:39:35.480Z,22.98
2022-11-18T17:42:17.833Z,19.80
2022-11-18T17:44:47.679Z,22.42
2022-11-18T17:47:17.685Z,21.90
2022-11-18T17:49:46.229Z,21.02
2022-11-18T17:52:14.711Z,20.50
2022-11-18T17:54:43.256Z,19.63
2022-11-18T17:57:11.778Z,17.25
2022-11-18T17:59:40.342Z,20.98
2022-11-18T18:02:11.699Z,20.67
2022-11-18T18:04:40.300Z,20.17
2022-11-18T18:07:08.919Z,18.38
2022-11-18T18:09:38.094Z,20.55
2022-11-18T18:12:27.563Z,19.85
2022-11-18T18:14:55.126Z,19.02
2022-11-18T18:17:25.221Z,16.00
2022-11-18T18:19:53.752Z,17.75
2022-11-18T18:22:22.481Z,14.52
2022-11-18T18:24:51.151Z,21.00
2022-11-18T18:27:19.903Z,23.15
2022-11-18T18:29:48.983Z,21.63
2022-11-18T18:32:17.986Z,18.50
2022-11-18T18:34:48.040Z,20.55
2022-11-18T18:37:16.648Z,19.20
2022-11-18T18:39:45.532Z,16.67
2022-11-18T18:42:14.171Z,20.73
2022-11-18T18:45:00.129Z,19.67
2022-11-18T18:47:28.880Z,17.40
2022-11-18T18:49:59.224Z,21.55
2022-11-18T18:52:27.861Z,18.45
2022-11-18T18:54:57.033Z,17.85
2022-11-18T18:57:25.811Z,18.13
2022-11-18T18:59:54.528Z,17.73
2022-11-18T19:02:23.295Z,19.38
2022-11-18T19:04:51.759Z,18.27
2022-11-18T19:07:21.857Z,19.88
2022-11-18T19:09:50.385Z,17.63
2022-11-18T19:12:36.517Z,15.73
2022-11-18T19:15:05.879Z,17.20
2022-11-18T19:17:34.539Z,16.80
2022-11-18T19:20:20.681Z,18.40
2022-11-18T19:22:50.669Z,17.05
2022-11-18T19:25:19.390Z,21.92
2022-11-18T19:27:49.116Z,20.10
2022-11-18T19:30:18.286Z,15.88
2022-11-18T19:32:46.810Z,15.23
2022-11-18T19:35:15.749Z,15.07
2022-11-18T19:37:44.373Z,20.38
2022-11-18T19:40:14.845Z,16.77
2022-11-18T19:42:43.479Z,17.60
2022-11-18T19:45:12.459Z,13.88
2022-11-18T19:47:41.067Z,15.45
2022-11-18T19:50:10.928Z,19.05
2022-11-18T19:52:39.381Z,16.30
2022-11-18T19:55:08.676Z,15.75
2022-11-18T19:57:38.515Z,14.35
2022-11-18T20:00:09.011Z,16.27
2022-11-18T20:02:38.917Z,12.38
2022-11-18T20:05:25.933Z,12.35
2022-11-18T20:07:56.522Z,13.50
2022-11-18T20:10:25.155Z,14.23
2022-11-18T20:12:56.299Z,14.20
2022-11-18T20:15:24.810Z,13.20
2022-11-18T20:17:53.643Z,14.20
2022-11-18T20:20:22.726Z,18.08
2022-11-18T20:22:52.350Z,11.63
2022-11-18T20:25:21.099Z,11.68
2022-11-18T20:27:49.611Z,12.38
2022-11-18T20:30:19.709Z,13.57
2022-11-18T20:32:48.312Z,12.48
2022-11-18T20:35:17.220Z,13.90
2022-11-18T20:37:45.991Z,11.50
2022-11-18T20:40:14.589Z,13.63
2022-11-18T20:43:00.768Z,10.90
2022-11-18T20:45:30.653Z,11.98
2022-11-18T20:47:59.366Z,14.68
2022-11-18T20:50:27.786Z,14.63
2022-11-18T20:52:56.613Z,9.90
2022-11-18T20:55:25.111Z,9.55
2022-11-18T20:57:53.642Z,11.85
2022-11-18T21:00:22.304Z,11.80
2022-11-18T21:02:52.254Z,12.32
2022-11-18T21:05:20.696Z,10.68
2022-11-18T21:07:50.697Z,11.18
2022-11-18T21:10:19.714Z,11.15
2022-11-18T21:13:05.886Z,10.45
2022-11-18T21:15:34.437Z,10.40
2022-11-18T21:18:04.814Z,11.07
2022-11-18T21:20:51.071Z,10.93
2022-11-18T21:23:19.581Z,12.00
2022-11-18T21:25:48.144Z,9.27
2022-11-18T21:28:16.895Z,10.20
2022-11-18T21:30:45.435Z,9.77
2022-11-18T21:33:15.308Z,9.77
2022-11-18T21:35:43.793Z,10.57
2022-11-18T21:38:12.325Z,11.10
2022-11-18T21:40:40.785Z,8.27
2022-11-18T21:43:09.413Z,10.82
2022-11-18T21:45:37.877Z,10.70
2022-11-18T21:48:07.672Z,9.00
2022-11-18T21:50:37.678Z,9.07
2022-11-18T21:53:06.252Z,12.10
2022-11-18T21:55:34.766Z,8.15
2022-11-18T21:58:04.287Z,9.32
2022-11-18T22:00:33.164Z,10.75
2022-11-18T22:03:01.733Z,9.43
2022-11-18T22:05:30.327Z,11.75
2022-11-18T22:08:00.138Z,8.40
2022-11-18T22:10:28.783Z,9.27
2022-11-18T22:12:57.651Z,8.02
2022-11-18T22:15:26.178Z,9.40
2022-11-18T22:17:54.633Z,8.18
2022-11-18T22:20:23.135Z,9.35
2022-11-18T22:22:51.631Z,8.85
2022-11-18T22:25:21.484Z,8.80
2022-11-18T22:27:49.965Z,9.60
2022-11-18T22:30:18.642Z,7.68
2022-11-18T22:32:47.155Z,8.25
2022-11-18T22:35:17.180Z,9.20
2022-11-18T22:37:45.728Z,9.70
2022-11-18T22:40:14.653Z,8.93
2022-11-18T22:42:49.303Z,8.65
2022-11-18T22:45:18.281Z,8.15
2022-11-18T22:47:46.974Z,8.80
2022-11-18T22:50:16.553Z,9.35
2022-11-18T22:52:45.475Z,8.35
2022-11-18T22:55:13.986Z,12.32
2022-11-18T22:57:44.231Z,9.30
2022-11-18T23:00:16.086Z,7.18
2022-11-18T23:02:44.556Z,7.40
2022-11-18T23:05:12.989Z,7.55
2022-11-18T23:07:41.566Z,7.97
2022-11-18T23:10:12.333Z,9.18
2022-11-18T23:12:58.391Z,8.32
2022-11-18T23:15:28.266Z,8.10
2022-11-18T23:17:56.715Z,8.88
2022-11-18T23:20:25.257Z,9.90
2022-11-18T23:22:53.803Z,8.50
2022-11-18T23:25:22.304Z,6.63
2022-11-18T23:27:54.201Z,7.90
2022-11-18T23:30:23.421Z,6.65
2022-11-18T23:32:55.934Z,8.70
2022-11-18T23:35:24.827Z,6.72
2022-11-18T23:37:54.615Z,9.73
2022-11-18T23:40:23.101Z,6.78
2022-11-18T23:42:51.593Z,6.80
2022-11-18T23:45:20.218Z,8.13
2022-11-18T23:47:48.667Z,7.13
2022-11-18T23:50:18.643Z,6.32
2022-11-18T23:52:47.198Z,6.78
2022-11-18T23:55:15.709Z,8.55
2022-11-18T23:57:44.193Z,8.85
